Time;durP1;ratioP1;P1;durP2;ratioP2;P2;SDS_P1;SDS_P2;PMS_P1;PMS_P2;Temp;Humidity;BMP_temperature;BMP_pressure;BME280_temperature;BME280_humidity;BME280_pressure;Samples;Min_cycle;Max_cycle;Signal;HPM_P1;HPM_P2
2021/05/18 00:01:17;;;;;;;7.13;1.63;;;14.60;99.90;;;;;;5032665;28;20173;-74
2021/05/18 00:03:44;;;;;;;7.67;2.00;;;14.70;99.30;;;;;;5034371;28;20180;-73
2021/05/18 00:06:12;;;;;;;4.33;1.50;;;14.90;99.10;;;;;;5033459;28;20183;-72
2021/05/18 00:11:46;;;;;;;4.03;1.73;;;15.10;99.00;;;;;;5010417;28;20216;-72
2021/05/18 00:14:18;;;;;;;3.87;2.00;;;15.10;98.80;;;;;;5029905;28;20190;-72
2021/05/18 00:16:47;;;;;;;4.17;1.30;;;15.20;99.00;;;;;;5031778;28;20178;-72
2021/05/18 00:19:15;;;;;;;3.53;1.77;;;15.30;98.40;;;;;;5032945;28;20599;-73
2021/05/18 00:21:43;;;;;;;4.30;2.00;;;15.40;98.00;;;;;;5033524;28;20643;-71
2021/05/18 00:24:12;;;;;;;5.00;1.67;;;15.50;97.70;;;;;;5030392;28;20554;-71
2021/05/18 00:26:40;;;;;;;3.30;1.70;;;15.50;97.90;;;;;;5032074;28;20654;-72
2021/05/18 00:29:08;;;;;;;5.27;1.57;;;15.60;97.30;;;;;;5033217;28;20456;-69
2021/05/18 00:31:36;;;;;;;5.67;1.70;;;15.60;97.50;;;;;;5033595;28;20580;-70
2021/05/18 00:34:04;;;;;;;9.10;1.70;;;15.70;96.90;;;;;;5033790;28;20573;-68
2021/05/18 00:36:32;;;;;;;3.20;1.60;;;15.80;97.80;;;;;;5031926;28;20286;-72
2021/05/18 00:39:00;;;;;;;4.20;1.40;;;15.90;96.60;;;;;;5033559;28;20204;-74
2021/05/18 00:41:27;;;;;;;4.30;1.67;;;16.00;97.20;;;;;;5034226;28;20189;-73
2021/05/18 00:43:55;;;;;;;6.40;1.60;;;16.10;96.70;;;;;;5033597;28;20183;-70
2021/05/18 00:46:23;;;;;;;3.90;1.70;;;16.10;97.00;;;;;;5032535;28;20196;-71
2021/05/18 00:48:57;;;;;;;4.77;1.70;;;16.10;96.50;;;;;;5033091;28;20183;-73
2021/05/18 00:51:27;;;;;;;7.10;1.80;;;16.30;96.20;;;;;;5032441;28;20188;-71
2021/05/18 00:53:56;;;;;;;7.43;1.90;;;16.40;96.00;;;;;;5033574;28;20608;-73
2021/05/18 00:59:08;;;;;;;5.40;2.03;;;16.60;95.80;;;;;;5032985;28;20211;-73
2021/05/18 01:01:35;;;;;;;6.47;1.90;;;16.70;95.60;;;;;;5032005;28;20223;-73
2021/05/18 01:04:03;;;;;;;4.10;2.10;;;16.70;95.50;;;;;;5020342;28;20391;-73
2021/05/18 01:06:31;;;;;;;6.30;2.10;;;16.80;95.30;;;;;;5032388;28;20262;-71
2021/05/18 01:08:58;;;;;;;3.07;1.73;;;17.00;95.70;;;;;;5031513;28;20184;-70
2021/05/18 01:11:29;;;;;;;5.07;1.70;;;17.20;94.70;;;;;;5013382;28;20173;-70
2021/05/18 01:14:03;;;;;;;7.80;1.80;;;17.30;94.00;;;;;;5018435;28;20616;-71
2021/05/18 01:16:35;;;;;;;5.23;1.67;;;17.30;93.80;;;;;;5032741;28;20255;-72
2021/05/18 01:19:04;;;;;;;4.60;1.83;;;17.30;93.80;;;;;;5032843;28;20197;-73
2021/05/18 01:21:31;;;;;;;5.93;1.83;;;17.40;93.80;;;;;;5032026;28;20651;-74
2021/05/18 01:23:59;;;;;;;3.40;1.50;;;17.60;93.60;;;;;;5032324;28;20195;-74
2021/05/18 01:26:30;;;;;;;8.20;1.60;;;17.90;92.80;;;;;;5032706;28;20675;-74
2021/05/18 01:28:57;;;;;;;5.97;1.80;;;18.00;92.50;;;;;;5032835;28;20184;-73
2021/05/18 01:31:26;;;;;;;4.23;1.30;;;18.10;91.20;;;;;;5032813;28;20174;-74
2021/05/18 01:33:55;;;;;;;2.70;1.47;;;18.40;90.80;;;;;;5032722;28;20191;-72
2021/05/18 01:36:24;;;;;;;3.10;1.53;;;18.40;90.70;;;;;;5032180;28;20646;-74
2021/05/18 01:39:01;;;;;;;6.70;1.83;;;18.60;90.50;;;;;;5031535;28;20663;-75
2021/05/18 01:44:14;;;;;;;4.17;1.80;;;18.80;90.50;;;;;;5032943;28;20693;-75
2021/05/18 01:46:46;;;;;;;5.17;1.80;;;19.00;90.00;;;;;;5032305;28;20255;-74
2021/05/18 01:49:18;;;;;;;4.87;1.60;;;18.80;89.50;;;;;;5031222;28;20180;-68
2021/05/18 01:51:51;;;;;;;5.70;1.60;;;19.30;88.40;;;;;;5032340;28;20195;-69
2021/05/18 01:54:27;;;;;;;3.60;1.43;;;19.80;86.40;;;;;;5030965;28;20214;-72
2021/05/18 01:59:29;;;;;;;3.63;1.57;;;19.90;83.40;;;;;;5032106;28;20204;-73
2021/05/18 02:01:59;;;;;;;3.23;1.50;;;19.60;83.10;;;;;;5028605;28;20177;-70
2021/05/18 02:04:31;;;;;;;4.37;1.67;;;19.40;84.70;;;;;;5030718;28;20184;-73
2021/05/18 02:07:19;;;;;;;5.70;1.70;;;19.70;84.80;;;;;;5031195;28;20215;-71
2021/05/18 02:09:46;;;;;;;5.60;1.50;;;19.60;83.20;;;;;;5030125;28;20203;-73
2021/05/18 02:12:14;;;;;;;6.50;1.93;;;19.70;83.60;;;;;;5031118;28;20180;-72
2021/05/18 02:14:44;;;;;;;3.43;1.50;;;20.20;81.70;;;;;;5030663;28;20279;-72
2021/05/18 02:20:17;;;;;;;2.30;1.37;;;20.80;80.40;;;;;;5030569;28;20211;-71
2021/05/18 02:25:18;;;;;;;4.47;1.80;;;20.40;80.80;;;;;;5030247;28;20189;-69
2021/05/18 02:27:46;;;;;;;4.83;1.53;;;20.30;80.50;;;;;;5026935;28;20714;-73
2021/05/18 02:30:15;;;;;;;2.20;1.40;;;20.40;80.50;;;;;;5033221;28;20216;-70
2021/05/18 02:32:43;;;;;;;7.63;2.10;;;20.50;79.60;;;;;;5033902;28;20208;-68
2021/05/18 02:35:14;;;;;;;5.23;1.60;;;20.60;79.20;;;;;;5032937;28;20259;-68
2021/05/18 02:37:42;;;;;;;2.80;1.60;;;20.50;79.20;;;;;;5034074;28;20327;-69
2021/05/18 02:40:16;;;;;;;2.40;1.20;;;20.80;77.80;;;;;;5035047;28;20240;-70
2021/05/18 02:42:45;;;;;;;4.97;1.63;;;20.90;77.20;;;;;;5027141;28;20185;-71
2021/05/18 02:45:33;;;;;;;2.57;1.40;;;21.00;76.70;;;;;;5033231;28;20208;-69
2021/05/18 02:50:46;;;;;;;10.50;2.03;;;20.80;76.70;;;;;;5029460;28;20199;-70
2021/05/18 02:53:13;;;;;;;9.10;2.07;;;20.90;78.40;;;;;;5034809;28;20204;-69
2021/05/18 02:56:03;;;;;;;6.90;2.00;;;21.00;78.10;;;;;;5032442;28;20181;-70
2021/05/18 02:58:31;;;;;;;8.97;2.00;;;20.70;77.90;;;;;;5032410;28;20592;-71
2021/05/18 03:00:59;;;;;;;4.23;1.30;;;21.00;77.20;;;;;;5034577;28;20647;-72
2021/05/18 03:03:26;;;;;;;4.93;1.57;;;20.90;75.90;;;;;;5034439;28;20199;-71
2021/05/18 03:05:54;;;;;;;4.23;1.20;;;21.00;74.30;;;;;;5033290;28;20196;-72
2021/05/18 03:08:22;;;;;;;4.03;1.67;;;21.30;75.60;;;;;;5033884;28;20543;-71
2021/05/18 03:10:49;;;;;;;5.67;1.57;;;21.00;76.30;;;;;;5033705;28;20196;-69
2021/05/18 03:13:16;;;;;;;1.67;1.20;;;21.20;76.20;;;;;;5033614;28;20200;-69
2021/05/18 03:15:44;;;;;;;6.27;1.27;;;21.80;73.30;;;;;;5032739;28;20191;-70
2021/05/18 03:18:11;;;;;;;5.37;1.60;;;22.50;72.10;;;;;;5034543;28;20184;-70
2021/05/18 03:20:38;;;;;;;6.57;1.30;;;22.50;71.90;;;;;;5033462;28;20299;-67
2021/05/18 03:23:06;;;;;;;1.77;1.23;;;22.10;71.30;;;;;;5033653;28;20192;-69
2021/05/18 03:25:33;;;;;;;3.37;1.50;;;22.00;72.10;;;;;;5033736;28;20266;-68
2021/05/18 03:28:00;;;;;;;4.33;1.73;;;22.00;71.30;;;;;;5028920;28;20188;-72
2021/05/18 03:35:44;;;;;;;5.60;1.63;;;22.60;70.50;;;;;;5032117;28;20272;-73
2021/05/18 03:38:20;;;;;;;4.93;1.50;;;22.10;71.30;;;;;;5033360;28;20228;-70
2021/05/18 03:40:54;;;;;;;9.70;2.20;;;21.90;71.70;;;;;;5032875;28;20219;-72
2021/05/18 03:48:40;;;;;;;4.93;1.30;;;22.70;70.40;;;;;;5032675;28;20237;-72
2021/05/18 03:48:53;;;;;;;4.37;1.63;;;22.80;70.40;;;;;;5033203;28;20181;-73
2021/05/18 03:54:18;;;;;;;5.17;1.67;;;21.90;71.20;;;;;;5033032;28;20179;-71
2021/05/18 04:04:54;;;;;;;5.00;1.90;;;23.20;69.50;;;;;;5030564;28;20203;-72
2021/05/18 04:11:15;;;;;;;2.87;1.50;;;23.00;69.40;;;;;;5034727;28;20555;-70
2021/05/18 04:13:05;;;;;;;3.83;1.67;;;23.20;68.40;;;;;;5030381;28;20194;-71
2021/05/18 04:18:19;;;;;;;2.70;1.67;;;23.30;68.60;;;;;;5033554;28;20271;-74
2021/05/18 04:59:02;;;;;;;7.83;1.87;;;23.10;70.50;;;;;;5032304;28;20207;-70
2021/05/18 05:01:42;;;;;;;4.07;2.13;;;23.60;70.10;;;;;;5030497;28;20181;-73
2021/05/18 05:06:57;;;;;;;5.23;1.80;;;23.30;70.70;;;;;;5031250;28;20180;-72
2021/05/18 05:09:33;;;;;;;6.00;1.93;;;23.20;70.50;;;;;;5032287;28;20204;-74
2021/05/18 05:14:46;;;;;;;8.10;1.50;;;23.10;70.80;;;;;;5032507;28;20242;-73
2021/05/18 05:17:14;;;;;;;4.77;1.50;;;23.30;70.30;;;;;;5031132;28;20188;-72
2021/05/18 05:19:41;;;;;;;3.13;1.50;;;23.30;70.40;;;;;;5030937;28;20576;-73
2021/05/18 05:22:09;;;;;;;8.33;2.00;;;23.30;70.50;;;;;;5032270;28;20185;-73
2021/05/18 05:24:40;;;;;;;7.37;2.10;;;23.20;71.00;;;;;;5031726;28;20203;-72
2021/05/18 05:27:08;;;;;;;5.23;1.80;;;22.90;71.40;;;;;;5031686;28;20330;-72
2021/05/18 05:29:35;;;;;;;4.77;1.60;;;23.30;71.70;;;;;;5032255;28;20271;-73
2021/05/18 05:32:02;;;;;;;5.60;1.90;;;23.10;71.40;;;;;;5031776;28;20180;-74
2021/05/18 05:34:30;;;;;;;5.60;2.03;;;22.80;71.60;;;;;;5031760;28;20670;-73
2021/05/18 05:36:57;;;;;;;4.00;1.70;;;22.60;72.50;;;;;;5031915;28;20258;-74
2021/05/18 05:39:25;;;;;;;7.40;2.23;;;22.60;72.40;;;;;;5032322;28;20211;-74
2021/05/18 05:41:54;;;;;;;5.07;1.77;;;22.40;73.00;;;;;;5036443;28;20215;-73
2021/05/18 05:44:24;;;;;;;6.03;1.77;;;22.30;73.60;;;;;;5030855;28;20181;-74
2021/05/18 05:46:51;;;;;;;9.13;2.00;;;22.20;73.60;;;;;;5039072;28;20199;-73
2021/05/18 05:49:19;;;;;;;5.77;1.73;;;22.00;74.30;;;;;;5032095;28;20189;-73
2021/05/18 05:51:46;;;;;;;3.53;1.53;;;21.70;74.90;;;;;;5031648;28;20180;-72
2021/05/18 05:54:14;;;;;;;5.43;1.60;;;22.00;74.80;;;;;;5032174;28;20181;-74
2021/05/18 05:56:41;;;;;;;3.43;1.70;;;22.00;74.20;;;;;;5031513;28;20326;-75
2021/05/18 05:59:08;;;;;;;3.80;1.70;;;22.00;75.00;;;;;;5032124;28;20215;-75
2021/05/18 06:01:37;;;;;;;3.67;1.60;;;21.90;75.30;;;;;;5032010;28;20254;-73
2021/05/18 06:04:05;;;;;;;6.70;2.10;;;22.00;75.10;;;;;;5031748;28;20687;-74
2021/05/18 06:06:37;;;;;;;4.60;1.50;;;21.70;75.60;;;;;;5028958;28;20188;-72
2021/05/18 06:09:05;;;;;;;5.00;1.50;;;21.30;75.80;;;;;;5032115;28;20714;-69
2021/05/18 06:41:22;;;;;;;3.20;1.40;;;18.30;86.70;;;;;;5032089;28;20199;-71
2021/05/18 06:49:43;;;;;;;4.90;1.40;;;17.90;88.90;;;;;;5006335;28;20215;-71
2021/05/18 06:52:10;;;;;;;2.60;1.63;;;17.80;90.00;;;;;;5031329;28;20632;-74
2021/05/18 06:54:38;;;;;;;2.07;1.37;;;17.70;90.10;;;;;;5033251;28;20208;-73
2021/05/18 06:57:07;;;;;;;5.27;1.30;;;17.60;90.50;;;;;;5032032;28;20169;-70
2021/05/18 07:02:19;;;;;;;6.97;1.40;;;17.40;90.60;;;;;;5027458;28;20260;-72
2021/05/18 07:04:48;;;;;;;7.57;1.27;;;17.30;90.80;;;;;;5030671;28;20204;-71
2021/05/18 07:07:19;;;;;;;4.97;1.80;;;17.30;91.10;;;;;;5031364;28;20256;-68
2021/05/18 07:09:47;;;;;;;3.03;1.33;;;17.20;91.30;;;;;;5031017;28;20744;-69
2021/05/18 07:12:14;;;;;;;3.50;1.20;;;17.10;91.30;;;;;;5030906;28;20216;-68
2021/05/18 07:14:42;;;;;;;4.83;1.50;;;17.10;91.10;;;;;;5033501;28;20270;-69
2021/05/18 07:17:09;;;;;;;3.87;1.40;;;17.10;91.20;;;;;;5033371;28;20184;-69
2021/05/18 07:19:36;;;;;;;4.20;1.20;;;17.00;91.30;;;;;;5034479;28;20618;-68
2021/05/18 07:22:04;;;;;;;1.97;1.23;;;16.90;91.40;;;;;;5034428;28;20177;-69
2021/05/18 07:24:31;;;;;;;5.13;1.50;;;16.90;91.30;;;;;;5037661;28;20726;-71
2021/05/18 07:27:00;;;;;;;6.37;1.50;;;16.90;91.50;;;;;;5044415;28;20188;-71
2021/05/18 07:29:27;;;;;;;5.13;1.40;;;16.90;91.60;;;;;;5049846;28;20239;-69
2021/05/18 07:31:54;;;;;;;3.73;1.83;;;16.80;91.70;;;;;;5033993;28;20183;-70
2021/05/18 07:34:22;;;;;;;6.27;1.70;;;16.80;91.70;;;;;;5036379;28;20183;-70
2021/05/18 07:36:49;;;;;;;5.43;1.60;;;16.80;91.80;;;;;;5047661;28;20231;-71
2021/05/18 07:39:17;;;;;;;7.57;1.70;;;16.70;92.00;;;;;;5033893;28;20216;-71
2021/05/18 07:41:44;;;;;;;6.63;1.53;;;16.70;92.10;;;;;;5034661;28;20191;-72
2021/05/18 07:44:11;;;;;;;10.43;2.73;;;16.60;92.30;;;;;;5034367;28;20279;-70
2021/05/18 07:46:41;;;;;;;2.53;1.50;;;16.60;92.50;;;;;;5034316;28;20192;-74
2021/05/18 07:49:13;;;;;;;4.20;1.67;;;16.60;92.80;;;;;;5032884;28;20192;-73
2021/05/18 07:59:14;;;;;;;5.30;2.00;;;16.60;93.00;;;;;;5034313;28;20281;-71
2021/05/18 08:05:29;;;;;;;6.40;2.80;;;16.40;94.20;;;;;;5032262;28;20218;-70
2021/05/18 08:07:57;;;;;;;6.47;2.43;;;16.30;94.50;;;;;;5031720;28;20275;-73
2021/05/18 08:10:33;;;;;;;6.40;2.07;;;16.30;94.90;;;;;;5033517;28;20250;-70
2021/05/18 08:13:01;;;;;;;5.60;1.93;;;16.30;95.20;;;;;;5033609;28;20188;-71
2021/05/18 08:15:36;;;;;;;7.20;3.53;;;16.20;95.30;;;;;;5033352;28;20195;-71
2021/05/18 08:21:22;;;;;;;8.73;4.23;;;16.10;95.70;;;;;;5033457;28;20281;-71
2021/05/18 10:36:01;;;;;;;6.40;2.30;;;14.90;99.90;;;;;;5032190;28;20186;-72
2021/05/18 10:38:45;;;;;;;8.40;2.97;;;14.90;99.90;;;;;;5032250;28;20194;-73
2021/05/18 10:41:13;;;;;;;9.50;3.30;;;14.80;99.90;;;;;;5032580;28;20825;-68
2021/05/18 10:43:43;;;;;;;5.30;2.50;;;14.70;99.90;;;;;;5036518;28;20181;-70
2021/05/18 10:46:29;;;;;;;6.13;3.07;;;14.60;99.90;;;;;;5034045;28;20250;-71
2021/05/18 10:48:58;;;;;;;13.40;3.83;;;14.50;99.90;;;;;;5037415;28;20278;-69
2021/05/18 10:51:33;;;;;;;13.40;3.33;;;14.40;99.90;;;;;;5036685;28;20632;-69
2021/05/18 10:54:17;;;;;;;8.53;3.57;;;14.30;99.90;;;;;;5039694;28;20572;-73
2021/05/18 10:56:54;;;;;;;7.20;3.30;;;14.20;99.90;;;;;;5037403;28;20183;-71
2021/05/18 10:59:23;;;;;;;9.47;3.17;;;14.20;99.90;;;;;;5036042;28;20240;-70
2021/05/18 11:02:01;;;;;;;5.43;2.60;;;14.10;99.90;;;;;;5035808;28;20218;-71
2021/05/18 11:04:33;;;;;;;8.13;3.00;;;14.10;99.90;;;;;;5035574;28;20176;-71
2021/05/18 11:07:03;;;;;;;6.73;2.93;;;14.00;99.90;;;;;;5035484;28;20176;-72
2021/05/18 11:09:32;;;;;;;6.07;2.90;;;14.00;99.90;;;;;;5035657;28;20180;-72
2021/05/18 11:12:06;;;;;;;10.47;3.37;;;14.00;99.90;;;;;;5037743;28;20186;-72
2021/05/18 11:14:35;;;;;;;5.67;2.70;;;13.90;99.90;;;;;;5035544;28;20235;-71
2021/05/18 11:17:23;;;;;;;5.37;2.93;;;13.90;99.90;;;;;;5035012;28;20238;-71
2021/05/18 11:20:05;;;;;;;5.10;2.73;;;13.90;99.90;;;;;;5035444;28;20209;-71
2021/05/18 11:25:33;;;;;;;6.20;2.90;;;13.70;99.90;;;;;;5035611;28;20652;-71
2021/05/18 11:28:12;;;;;;;5.10;2.73;;;13.80;99.90;;;;;;5035413;28;20186;-71
2021/05/18 11:30:40;;;;;;;7.53;2.83;;;13.70;99.90;;;;;;5034769;28;20182;-72
2021/05/18 11:33:08;;;;;;;7.23;3.13;;;13.70;99.90;;;;;;5033962;28;20185;-71
2021/05/18 11:35:36;;;;;;;8.33;2.93;;;13.70;99.90;;;;;;5035278;28;20207;-71
2021/05/18 11:38:11;;;;;;;8.17;3.70;;;13.70;99.90;;;;;;5035019;28;20216;-72
2021/05/18 11:40:48;;;;;;;8.87;3.50;;;13.60;99.90;;;;;;5035005;28;20219;-71
2021/05/18 11:43:24;;;;;;;7.33;3.10;;;13.60;99.90;;;;;;5035676;28;20257;-71
2021/05/18 11:46:13;;;;;;;8.67;3.47;;;13.60;99.90;;;;;;5034439;28;20230;-71
2021/05/18 11:49:00;;;;;;;5.83;3.23;;;13.60;99.90;;;;;;5035508;28;20663;-69
2021/05/18 11:51:29;;;;;;;7.13;3.33;;;13.50;99.90;;;;;;5035535;28;20254;-69
2021/05/18 11:54:04;;;;;;;7.10;3.07;;;13.60;99.90;;;;;;5035568;28;20630;-68
2021/05/18 11:56:34;;;;;;;5.43;2.87;;;13.60;99.90;;;;;;5035309;28;20177;-72
2021/05/18 11:59:14;;;;;;;5.27;2.70;;;13.60;99.90;;;;;;5035423;28;20201;-72
2021/05/18 12:01:44;;;;;;;11.03;3.53;;;13.60;99.90;;;;;;5034629;28;20187;-70
2021/05/18 12:04:16;;;;;;;7.03;3.40;;;13.60;99.90;;;;;;5034254;28;20177;-71
2021/05/18 12:07:05;;;;;;;8.93;3.37;;;13.70;99.90;;;;;;5034178;28;20548;-72
2021/05/18 12:09:34;;;;;;;8.80;3.23;;;13.70;99.90;;;;;;5017472;28;20178;-71
2021/05/18 12:12:04;;;;;;;5.63;2.47;;;13.70;99.90;;;;;;5037121;28;20594;-72
2021/05/18 12:14:32;;;;;;;8.13;3.53;;;13.60;99.90;;;;;;5031077;28;20224;-71
2021/05/18 12:17:00;;;;;;;9.07;5.30;;;13.60;99.90;;;;;;5034015;28;20194;-72
2021/05/18 12:19:27;;;;;;;8.63;5.10;;;13.60;99.90;;;;;;5034354;28;20213;-71
2021/05/18 12:21:57;;;;;;;8.77;6.00;;;13.60;99.90;;;;;;5034389;28;20176;-72
2021/05/18 12:24:26;;;;;;;4.90;3.27;;;13.70;99.90;;;;;;5033844;28;20670;-71
2021/05/18 12:27:01;;;;;;;8.93;3.07;;;13.70;99.90;;;;;;5033987;28;20250;-72
2021/05/18 12:29:38;;;;;;;6.27;2.27;;;13.60;99.90;;;;;;5032825;28;20189;-73
2021/05/18 12:32:22;;;;;;;5.27;3.17;;;13.60;99.90;;;;;;5034009;28;20203;-71
2021/05/18 12:35:12;;;;;;;8.60;4.47;;;13.50;99.90;;;;;;5021633;28;20247;-71
2021/05/18 12:37:44;;;;;;;11.93;5.27;;;13.30;99.90;;;;;;5033667;28;20252;-72
2021/05/18 12:40:27;;;;;;;13.00;4.83;;;13.20;99.90;;;;;;5033107;28;20267;-72
2021/05/18 12:43:06;;;;;;;12.73;4.27;;;13.10;99.90;;;;;;5031465;28;20187;-71
2021/05/18 12:45:33;;;;;;;8.03;3.80;;;13.00;99.90;;;;;;5033605;28;20184;-70
2021/05/18 12:48:01;;;;;;;11.33;3.67;;;13.00;99.90;;;;;;5032298;28;20303;-72
2021/05/18 12:50:50;;;;;;;8.70;3.70;;;12.90;99.90;;;;;;5033464;28;20172;-72
2021/05/18 12:53:32;;;;;;;6.70;3.50;;;12.90;99.90;;;;;;5033638;28;20177;-73
2021/05/18 12:56:00;;;;;;;6.07;3.47;;;12.90;99.90;;;;;;5031993;28;20180;-71
2021/05/18 12:58:33;;;;;;;4.57;2.80;;;12.80;99.90;;;;;;5032976;28;20181;-70
2021/05/18 13:01:17;;;;;;;5.43;2.97;;;12.80;99.90;;;;;;5033555;28;20208;-72
2021/05/18 13:03:45;;;;;;;9.63;3.00;;;12.80;99.90;;;;;;5032791;28;20268;-73
2021/05/18 13:06:13;;;;;;;5.73;2.70;;;12.80;99.90;;;;;;5033351;28;20181;-71
2021/05/18 13:08:41;;;;;;;6.23;2.60;;;12.70;99.90;;;;;;5031922;28;20177;-72
2021/05/18 13:11:18;;;;;;;9.00;2.60;;;12.70;99.90;;;;;;5032839;28;20572;-71
2021/05/18 13:13:48;;;;;;;4.20;2.40;;;12.70;99.90;;;;;;5032992;28;20183;-72
2021/05/18 13:16:20;;;;;;;7.13;2.87;;;12.80;99.90;;;;;;5032258;28;20635;-71
2021/05/18 13:19:02;;;;;;;7.87;2.90;;;12.80;99.90;;;;;;5032357;28;20203;-72
2021/05/18 13:21:58;;;;;;;5.07;2.27;;;12.70;99.90;;;;;;5032605;28;20266;-72
2021/05/18 13:26:53;;;;;;;5.47;2.73;;;12.70;99.90;;;;;;5033039;28;20179;-71
2021/05/18 13:29:22;;;;;;;5.53;2.97;;;12.60;99.90;;;;;;5019389;28;20208;-72
2021/05/18 13:31:52;;;;;;;6.70;3.10;;;12.50;99.90;;;;;;5033016;28;20177;-72
2021/05/18 13:34:20;;;;;;;8.40;3.17;;;12.40;99.90;;;;;;5032232;28;20653;-71
2021/05/18 13:36:49;;;;;;;8.63;3.40;;;12.40;99.90;;;;;;5031794;28;20228;-71
2021/05/18 13:39:19;;;;;;;6.23;3.00;;;12.40;99.90;;;;;;5032650;28;20543;-72
2021/05/18 13:41:50;;;;;;;11.87;3.70;;;12.40;99.90;;;;;;5032726;28;20196;-73
2021/05/18 13:44:18;;;;;;;6.57;3.70;;;12.40;99.90;;;;;;5032736;28;20188;-71
2021/05/18 13:46:46;;;;;;;7.97;4.20;;;12.30;99.90;;;;;;5032054;28;20202;-70
2021/05/18 13:49:15;;;;;;;9.63;3.80;;;12.30;99.90;;;;;;5031459;28;20632;-71
2021/05/18 13:51:43;;;;;;;11.13;3.83;;;12.30;99.90;;;;;;5032168;28;20180;-71
2021/05/18 13:54:11;;;;;;;7.60;3.93;;;12.30;99.90;;;;;;5028352;28;20185;-71
2021/05/18 13:56:38;;;;;;;9.07;4.03;;;12.30;99.90;;;;;;5031804;28;20192;-71
2021/05/18 13:59:05;;;;;;;10.50;4.03;;;12.30;99.90;;;;;;5032408;28;20184;-71
2021/05/18 14:01:33;;;;;;;6.93;3.97;;;12.30;99.90;;;;;;5032622;28;20654;-71
2021/05/18 14:04:00;;;;;;;9.57;4.97;;;12.20;99.90;;;;;;5032295;28;20211;-71
2021/05/18 14:06:30;;;;;;;9.80;4.60;;;12.20;99.90;;;;;;5031984;28;20185;-71
2021/05/18 14:08:57;;;;;;;14.43;4.60;;;12.20;99.90;;;;;;5028316;28;20220;-71
2021/05/18 14:11:24;;;;;;;11.30;4.67;;;12.10;99.90;;;;;;5031717;28;20195;-71
2021/05/18 14:13:55;;;;;;;8.00;3.90;;;12.10;99.90;;;;;;5032402;28;20268;-70
2021/05/18 14:16:23;;;;;;;9.17;5.03;;;12.10;99.90;;;;;;5031579;28;20181;-71
2021/05/18 14:18:53;;;;;;;9.27;5.00;;;12.00;99.90;;;;;;5032190;28;20184;-71
2021/05/18 14:21:25;;;;;;;10.83;4.23;;;12.00;99.90;;;;;;5030830;28;20223;-71
2021/05/18 14:26:22;;;;;;;8.97;4.20;;;11.90;99.90;;;;;;5033002;28;20187;-71
2021/05/18 14:28:50;;;;;;;9.37;4.50;;;11.90;99.90;;;;;;5034603;28;20230;-72
2021/05/18 14:31:17;;;;;;;11.00;4.30;;;11.80;99.90;;;;;;5035859;28;20237;-72
2021/05/18 14:33:46;;;;;;;18.20;5.43;;;11.80;99.90;;;;;;5035672;28;20196;-72
2021/05/18 14:36:14;;;;;;;8.20;4.23;;;11.80;99.90;;;;;;5036017;28;20227;-73
2021/05/18 14:38:45;;;;;;;10.27;4.80;;;11.80;99.90;;;;;;5039080;28;20489;-72
2021/05/18 14:57:01;;;;;;;11.90;5.17;;;11.60;99.90;;;;;;5032952;28;20191;-73
2021/05/18 14:59:28;;;;;;;11.77;4.90;;;11.60;99.90;;;;;;5038116;28;20287;-72
2021/05/18 15:01:56;;;;;;;6.73;4.20;;;11.70;99.90;;;;;;5035228;28;20533;-72
2021/05/18 15:04:23;;;;;;;7.23;4.80;;;11.60;99.90;;;;;;5031550;28;20176;-73
2021/05/18 15:06:50;;;;;;;8.03;5.53;;;11.70;99.90;;;;;;5034581;28;20268;-72
2021/05/18 15:09:18;;;;;;;10.30;5.00;;;11.60;99.90;;;;;;5035522;28;20173;-72
2021/05/18 15:11:45;;;;;;;9.83;4.87;;;11.60;99.90;;;;;;5035297;28;20543;-73
2021/05/18 15:14:13;;;;;;;10.47;4.63;;;11.70;99.90;;;;;;5038224;28;20200;-73
2021/05/18 15:16:40;;;;;;;10.87;4.87;;;11.60;99.90;;;;;;5034025;28;20216;-73
2021/05/18 15:19:16;;;;;;;14.37;6.00;;;11.50;99.90;;;;;;5035192;28;20608;-74
2021/05/18 15:21:44;;;;;;;10.63;4.90;;;11.50;99.90;;;;;;5035188;28;20194;-74
2021/05/18 15:24:11;;;;;;;18.47;5.30;;;11.40;99.90;;;;;;5035070;28;20230;-74
2021/05/18 15:26:39;;;;;;;10.30;5.23;;;11.40;99.90;;;;;;5034998;28;20271;-71
2021/05/18 15:29:07;;;;;;;11.60;5.53;;;11.30;99.90;;;;;;5035553;28;20235;-73
2021/05/18 15:31:34;;;;;;;14.00;5.90;;;11.30;99.90;;;;;;5034526;28;20208;-73
2021/05/18 15:34:02;;;;;;;8.90;5.10;;;11.30;99.90;;;;;;5034269;28;20185;-74
2021/05/18 15:36:29;;;;;;;17.90;5.67;;;11.30;99.90;;;;;;5034672;28;20251;-73
2021/05/18 15:38:57;;;;;;;16.30;5.93;;;11.20;99.90;;;;;;5034620;28;20195;-72
2021/05/18 15:41:24;;;;;;;10.73;5.37;;;11.20;99.90;;;;;;5035090;28;20608;-73
2021/05/18 15:43:52;;;;;;;12.43;5.77;;;11.10;99.90;;;;;;5035021;28;20183;-73
2021/05/18 15:46:19;;;;;;;8.37;4.97;;;11.10;99.90;;;;;;5032539;28;20234;-71
2021/05/18 15:48:47;;;;;;;12.43;5.50;;;11.20;99.90;;;;;;5034211;28;20211;-72
2021/05/18 15:51:14;;;;;;;10.33;5.37;;;11.20;99.90;;;;;;5033740;28;20192;-69
2021/05/18 15:53:42;;;;;;;8.40;5.47;;;11.10;99.90;;;;;;5035000;28;20196;-71
2021/05/18 15:56:09;;;;;;;10.20;5.17;;;11.10;99.90;;;;;;5034138;28;20179;-71
2021/05/18 15:58:37;;;;;;;16.20;5.43;;;11.10;99.90;;;;;;5034575;28;20188;-73
2021/05/18 16:01:04;;;;;;;19.03;6.90;;;11.00;99.90;;;;;;5021245;28;20216;-72
2021/05/18 16:03:32;;;;;;;12.67;6.73;;;11.00;99.90;;;;;;5033492;28;20579;-72
2021/05/18 16:06:03;;;;;;;11.00;6.13;;;11.00;99.90;;;;;;5034265;28;20189;-72
2021/05/18 16:11:09;;;;;;;13.63;5.80;;;11.00;99.90;;;;;;5032656;28;20176;-72
2021/05/18 16:13:39;;;;;;;13.73;6.53;;;11.00;99.90;;;;;;5026991;28;20203;-73
2021/05/18 16:16:08;;;;;;;11.60;6.70;;;10.90;99.90;;;;;;5033761;28;20189;-69
2021/05/18 16:18:37;;;;;;;12.57;6.70;;;10.90;99.90;;;;;;5032646;28;20291;-69
2021/05/18 16:21:07;;;;;;;15.37;6.87;;;10.80;99.90;;;;;;5034449;28;20265;-71
2021/05/18 16:23:37;;;;;;;17.50;7.53;;;10.80;99.90;;;;;;5034444;28;20176;-69
2021/05/18 16:26:06;;;;;;;11.43;6.33;;;10.70;99.90;;;;;;5034024;28;20185;-68
2021/05/18 16:28:34;;;;;;;21.03;7.37;;;10.70;99.90;;;;;;5033085;28;20195;-69
2021/05/18 16:31:02;;;;;;;15.77;7.50;;;10.70;99.90;;;;;;5022714;28;20181;-70
2021/05/18 16:33:30;;;;;;;19.50;7.73;;;10.70;99.90;;;;;;5033360;28;20200;-71
2021/05/18 16:35:58;;;;;;;19.47;7.03;;;10.80;99.90;;;;;;5033911;28;20212;-71
2021/05/18 16:38:25;;;;;;;13.63;6.77;;;10.80;99.90;;;;;;5033574;28;20207;-70
2021/05/18 16:40:53;;;;;;;16.73;6.87;;;10.80;99.90;;;;;;5033441;28;20216;-68
2021/05/18 16:43:26;;;;;;;17.13;8.30;;;10.70;99.90;;;;;;5033543;28;20184;-72
2021/05/18 16:45:54;;;;;;;15.67;8.47;;;10.70;99.90;;;;;;5032646;28;20214;-71
2021/05/18 16:48:26;;;;;;;16.30;8.27;;;10.80;99.90;;;;;;5032496;28;20177;-72
2021/05/18 16:50:58;;;;;;;22.93;11.60;;;10.80;99.90;;;;;;5033641;28;20190;-73
2021/05/18 16:53:26;;;;;;;24.07;11.03;;;10.80;99.90;;;;;;5033888;28;20195;-73
2021/05/18 16:55:53;;;;;;;22.43;11.77;;;10.80;99.90;;;;;;5033701;28;20180;-72
2021/05/18 16:58:22;;;;;;;21.13;12.00;;;10.80;99.90;;;;;;5033397;28;20188;-71
2021/05/18 17:00:49;;;;;;;23.37;11.40;;;10.80;99.90;;;;;;5033513;28;20228;-72
2021/05/18 17:03:16;;;;;;;17.57;10.57;;;10.70;99.90;;;;;;5032153;28;20193;-72
2021/05/18 17:05:44;;;;;;;15.37;8.97;;;10.70;99.90;;;;;;5033665;28;20268;-72
2021/05/18 17:08:11;;;;;;;13.70;10.40;;;10.70;99.90;;;;;;5033314;28;20212;-71
2021/05/18 17:10:42;;;;;;;20.37;10.83;;;10.60;99.90;;;;;;5032974;28;20279;-72
2021/05/18 17:13:10;;;;;;;19.90;11.03;;;10.50;99.90;;;;;;5033220;28;20194;-72
2021/05/18 17:15:38;;;;;;;22.07;12.83;;;10.50;99.90;;;;;;5032563;28;20283;-71
2021/05/18 17:18:05;;;;;;;22.23;11.77;;;10.50;99.90;;;;;;5030892;28;20238;-71
2021/05/18 17:20:35;;;;;;;20.90;12.47;;;10.40;99.90;;;;;;5032537;28;20223;-71
2021/05/18 17:23:04;;;;;;;23.47;11.03;;;10.30;99.90;;;;;;5032985;28;20177;-72
2021/05/18 17:25:33;;;;;;;24.03;10.60;;;10.30;99.90;;;;;;5033179;28;20191;-72
2021/05/18 17:28:00;;;;;;;21.23;10.83;;;10.20;99.90;;;;;;5032930;28;20180;-72
2021/05/18 17:30:30;;;;;;;17.23;11.30;;;10.20;99.90;;;;;;5028801;28;20558;-72
2021/05/18 17:32:58;;;;;;;21.63;11.47;;;10.30;99.90;;;;;;5031502;28;20180;-71
2021/05/18 17:35:26;;;;;;;21.03;10.53;;;10.30;99.90;;;;;;5032616;28;20192;-72
2021/05/18 17:37:54;;;;;;;17.07;10.13;;;10.30;99.90;;;;;;5032983;28;20228;-72
2021/05/18 17:40:21;;;;;;;19.87;9.90;;;10.30;99.90;;;;;;5032053;28;20200;-72
2021/05/18 17:42:50;;;;;;;17.97;9.43;;;10.20;99.90;;;;;;5033020;28;20184;-72
2021/05/18 17:45:17;;;;;;;19.80;9.20;;;10.20;99.90;;;;;;5032521;28;20193;-73
2021/05/18 17:47:45;;;;;;;15.30;9.00;;;10.10;99.90;;;;;;5031800;28;20233;-70
2021/05/18 17:50:15;;;;;;;23.10;9.30;;;10.00;99.90;;;;;;5032381;28;20184;-71
2021/05/18 17:52:43;;;;;;;17.83;8.63;;;9.90;99.90;;;;;;5031596;28;20181;-72
2021/05/18 17:55:13;;;;;;;19.77;7.93;;;9.90;99.90;;;;;;5032610;28;20689;-74
2021/05/18 17:57:41;;;;;;;19.00;9.00;;;9.90;99.90;;;;;;5032108;28;20234;-72